createdAt,value
2023-05-21T00:00:38.751Z,95029
2023-05-21T00:04:04.052Z,95025
2023-05-21T00:07:29.160Z,95028
2023-05-21T00:10:54.338Z,95028
2023-05-21T00:14:19.524Z,95025
2023-05-21T00:17:44.751Z,95019
2023-05-21T00:21:09.975Z,95011
2023-05-21T00:24:35.108Z,95010
2023-05-21T00:28:00.316Z,95015
2023-05-21T00:31:25.536Z,95015
2023-05-21T00:34:50.697Z,95013
2023-05-21T00:38:15.907Z,95012
2023-05-21T00:41:41.096Z,95005
2023-05-21T00:45:06.294Z,95005
2023-05-21T00:48:31.531Z,94998
2023-05-21T00:51:56.728Z,94996
2023-05-21T00:55:22.017Z,94995
2023-05-21T00:58:47.174Z,94997
2023-05-21T01:02:12.365Z,94998
2023-05-21T01:05:37.812Z,94999
2023-05-21T01:09:04.392Z,94996
2023-05-21T01:12:28.001Z,94995
2023-05-21T01:15:53.159Z,95000
2023-05-21T01:19:18.417Z,95000
2023-05-21T01:22:43.554Z,94991
2023-05-21T01:26:08.756Z,94986
2023-05-21T01:29:33.994Z,94985
2023-05-21T01:32:59.255Z,94987
2023-05-21T01:36:26.422Z,94982
2023-05-21T01:39:51.626Z,94978
2023-05-21T01:43:16.829Z,94981
2023-05-21T01:46:42.102Z,94986
2023-05-21T01:50:07.231Z,94977
2023-05-21T01:53:32.463Z,94979
2023-05-21T01:56:57.673Z,94978
2023-05-21T02:00:23.678Z,94978
2023-05-21T02:03:48.980Z,94978
2023-05-21T02:07:14.089Z,94968
2023-05-21T02:10:39.301Z,94975
2023-05-21T02:14:04.486Z,94974
2023-05-21T02:17:29.687Z,94967
2023-05-21T02:20:54.866Z,94965
2023-05-21T02:24:20.061Z,94962
2023-05-21T02:27:45.276Z,94965
2023-05-21T02:31:10.476Z,94965
2023-05-21T02:34:35.669Z,94967
2023-05-21T02:38:00.890Z,94968
2023-05-21T02:41:26.043Z,94963
2023-05-21T02:44:51.247Z,94964
2023-05-21T02:48:16.429Z,94955
2023-05-21T02:51:41.653Z,94955
2023-05-21T02:55:06.852Z,94954
2023-05-21T02:58:32.049Z,94953
2023-05-21T03:01:57.259Z,94950
2023-05-21T03:05:22.449Z,94953
2023-05-21T03:08:47.637Z,94950
2023-05-21T03:12:12.856Z,94949
2023-05-21T03:15:38.143Z,94950
2023-05-21T03:19:03.258Z,94950
2023-05-21T03:22:28.412Z,94952
2023-05-21T03:25:53.605Z,94946
2023-05-21T03:29:18.838Z,94948
2023-05-21T03:32:44.054Z,94947
2023-05-21T03:36:09.202Z,94949
2023-05-21T03:39:35.861Z,94944
2023-05-21T03:43:01.053Z,94946
2023-05-21T03:46:26.311Z,94942
2023-05-21T03:49:51.467Z,94946
2023-05-21T03:53:16.671Z,94949
2023-05-21T03:56:41.835Z,94947
2023-05-21T04:00:07.013Z,94940
2023-05-21T04:03:32.483Z,94950
2023-05-21T04:06:57.451Z,94945
2023-05-21T04:10:22.642Z,94951
2023-05-21T04:13:47.865Z,94954
2023-05-21T04:17:13.054Z,94962
2023-05-21T04:20:38.299Z,94962
2023-05-21T04:24:03.466Z,94962
2023-05-21T04:27:28.686Z,94967
2023-05-21T04:30:53.870Z,94962
2023-05-21T04:34:19.035Z,94962
2023-05-21T04:37:44.295Z,94962
2023-05-21T04:41:09.475Z,94959
2023-05-21T04:44:34.689Z,94964
2023-05-21T04:47:59.920Z,94973
2023-05-21T04:51:25.088Z,94975
2023-05-21T04:54:50.315Z,94980
2023-05-21T04:58:15.461Z,94979
2023-05-21T05:01:40.636Z,94983
2023-05-21T05:05:05.854Z,94979
2023-05-21T05:08:31.055Z,94973
2023-05-21T05:11:56.248Z,94966
2023-05-21T05:15:21.458Z,94961
2023-05-21T05:18:46.693Z,94966
2023-05-21T05:22:13.386Z,94962
2023-05-21T05:25:37.289Z,94965
2023-05-21T05:29:02.399Z,94956
2023-05-21T05:32:27.601Z,94958
2023-05-21T05:35:52.786Z,94955
2023-05-21T05:39:17.990Z,94959
2023-05-21T05:42:43.331Z,94954
2023-05-21T05:46:08.565Z,94958
2023-05-21T05:49:33.688Z,94953
2023-05-21T05:52:58.848Z,94952
2023-05-21T05:56:24.089Z,94952
2023-05-21T05:59:49.300Z,94956
2023-05-21T06:03:14.584Z,94955
2023-05-21T06:06:39.640Z,94956
2023-05-21T06:10:04.835Z,94958
2023-05-21T06:13:30.011Z,94960
2023-05-21T06:16:55.190Z,94956
2023-05-21T06:20:20.552Z,94955
2023-05-21T06:23:45.639Z,94961
2023-05-21T06:27:10.873Z,94959
2023-05-21T06:30:36.058Z,94963
2023-05-21T06:34:01.379Z,94959
2023-05-21T06:37:26.715Z,94955
2023-05-21T06:40:51.651Z,94952
2023-05-21T06:44:16.852Z,94956
2023-05-21T06:47:42.076Z,94954
2023-05-21T06:51:07.257Z,94959
2023-05-21T06:54:32.529Z,94959
2023-05-21T06:57:57.712Z,94963
2023-05-21T07:01:22.942Z,94965
2023-05-21T07:04:48.104Z,94964
2023-05-21T07:08:13.338Z,94962
2023-05-21T07:11:38.577Z,94968
2023-05-21T07:15:03.740Z,94964
2023-05-21T07:18:28.937Z,94961
2023-05-21T07:21:54.155Z,94951
2023-05-21T07:25:20.102Z,94958
2023-05-21T07:28:45.325Z,94962
2023-05-21T07:32:10.520Z,94952
2023-05-21T07:35:35.865Z,94953
2023-05-21T07:39:00.907Z,94951
2023-05-21T07:42:26.076Z,94951
2023-05-21T07:45:51.386Z,94945
2023-05-21T07:49:16.740Z,94948
2023-05-21T07:52:41.758Z,94944
2023-05-21T07:56:06.937Z,94951
2023-05-21T07:59:32.179Z,94949
2023-05-21T08:02:57.546Z,94942
2023-05-21T08:06:22.590Z,94941
2023-05-21T08:09:47.840Z,94943
2023-05-21T08:13:13.048Z,94945
2023-05-21T08:16:38.286Z,94940
2023-05-21T08:20:03.480Z,94944
2023-05-21T08:23:29.204Z,94944
2023-05-21T08:26:54.422Z,94946
2023-05-21T08:30:19.594Z,94952
2023-05-21T08:33:44.880Z,94946
2023-05-21T08:37:10.128Z,94950
2023-05-21T08:40:35.264Z,94947
2023-05-21T08:44:00.466Z,94947
2023-05-21T08:47:25.657Z,94943
2023-05-21T08:50:50.877Z,94944
2023-05-21T08:54:16.280Z,94943
2023-05-21T08:57:41.314Z,94941
2023-05-21T09:01:06.606Z,94940
2023-05-21T09:04:31.861Z,94937
2023-05-21T09:07:57.057Z,94930
2023-05-21T09:11:22.255Z,94938
2023-05-21T09:14:47.445Z,94938
2023-05-21T09:18:12.700Z,94937
2023-05-21T09:21:37.851Z,94933
2023-05-21T09:25:03.064Z,94936
2023-05-21T09:28:28.289Z,94939
2023-05-21T09:31:53.579Z,94940
2023-05-21T09:35:18.696Z,94944
2023-05-21T09:38:43.908Z,94940
2023-05-21T09:42:09.134Z,94934
2023-05-21T09:45:34.547Z,94936
2023-05-21T09:48:59.586Z,94936
2023-05-21T09:52:24.769Z,94926
2023-05-21T09:55:49.961Z,94927
2023-05-21T09:59:15.155Z,94929
2023-05-21T10:02:40.427Z,94928
2023-05-21T10:06:05.612Z,94934
2023-05-21T10:09:30.819Z,94931
2023-05-21T10:12:56.040Z,94930
2023-05-21T10:16:21.231Z,94924
2023-05-21T10:19:46.429Z,94932
2023-05-21T10:23:11.633Z,94928
2023-05-21T10:26:36.826Z,94926
2023-05-21T10:30:02.069Z,94922
2023-05-21T10:33:27.294Z,94912
2023-05-21T10:36:52.499Z,94917
2023-05-21T10:40:17.746Z,94918
2023-05-21T10:43:42.932Z,94910
2023-05-21T10:47:08.126Z,94908
2023-05-21T10:50:33.321Z,94904
2023-05-21T10:53:58.531Z,94905
2023-05-21T10:57:23.729Z,94902
2023-05-21T11:00:48.955Z,94910
2023-05-21T11:04:14.171Z,94901
2023-05-21T11:07:39.387Z,94901
2023-05-21T11:11:04.620Z,94900
2023-05-21T11:14:29.801Z,94902
2023-05-21T11:17:55.084Z,94898
2023-05-21T11:21:20.215Z,94899
2023-05-21T11:24:45.386Z,94896
2023-05-21T11:28:10.618Z,94901
2023-05-21T11:31:35.843Z,94898
2023-05-21T11:35:01.032Z,94896
2023-05-21T11:38:26.210Z,94886
2023-05-21T11:41:51.432Z,94886
2023-05-21T11:45:16.673Z,94893
2023-05-21T11:48:41.834Z,94896
2023-05-21T11:52:07.023Z,94892
2023-05-21T11:55:32.279Z,94878
2023-05-21T11:58:57.473Z,94880
2023-05-21T12:02:22.982Z,94877
2023-05-21T12:05:48.084Z,94879
2023-05-21T12:09:13.283Z,94879
2023-05-21T12:12:50.443Z,94879
2023-05-21T12:16:05.954Z,94879
2023-05-21T12:19:29.101Z,94873
2023-05-21T12:22:54.236Z,94882
2023-05-21T12:26:19.423Z,94876
2023-05-21T12:29:44.699Z,94875
2023-05-21T12:33:09.901Z,94875
2023-05-21T12:36:35.255Z,94880
2023-05-21T12:40:00.345Z,94884
2023-05-21T12:43:25.543Z,94878
2023-05-21T12:46:50.791Z,94880
2023-05-21T12:50:15.991Z,94872
2023-05-21T12:53:41.301Z,94876
2023-05-21T12:57:06.439Z,94874
2023-05-21T13:00:31.683Z,94874
2023-05-21T13:03:56.920Z,94868
2023-05-21T13:07:22.164Z,94872
2023-05-21T13:10:47.448Z,94862
2023-05-21T13:14:12.604Z,94862
2023-05-21T13:17:37.870Z,94858
2023-05-21T13:21:03.126Z,94863
2023-05-21T13:24:28.371Z,94859
2023-05-21T13:27:53.774Z,94854
2023-05-21T13:31:18.839Z,94853
2023-05-21T13:34:44.152Z,94852
2023-05-21T13:38:09.397Z,94858
2023-05-21T13:41:34.656Z,94858
2023-05-21T13:44:59.914Z,94857
2023-05-21T13:48:25.225Z,94860
2023-05-21T13:51:50.433Z,94864
2023-05-21T13:55:15.684Z,94855
2023-05-21T13:58:40.946Z,94860
2023-05-21T14:02:06.271Z,94858
2023-05-21T14:05:31.469Z,94851
2023-05-21T14:08:56.707Z,94853
2023-05-21T14:12:21.950Z,94852
2023-05-21T14:15:47.215Z,94844
2023-05-21T14:19:12.460Z,94839
2023-05-21T14:22:37.683Z,94841
2023-05-21T14:26:02.922Z,94835
2023-05-21T14:29:28.211Z,94836
2023-05-21T14:32:53.716Z,94836
2023-05-21T14:36:18.797Z,94835
2023-05-21T14:39:43.947Z,94827
2023-05-21T14:43:09.201Z,94835
2023-05-21T14:46:34.524Z,94834
2023-05-21T14:49:59.670Z,94825
2023-05-21T14:53:24.887Z,94824
2023-05-21T14:56:50.139Z,94823
2023-05-21T15:00:15.370Z,94830
2023-05-21T15:03:40.734Z,94831
2023-05-21T15:07:05.908Z,94827
2023-05-21T15:10:31.134Z,94823
2023-05-21T15:47:08.553Z,94826
2023-05-21T15:50:33.736Z,94827
2023-05-21T15:53:59.023Z,94828
2023-05-21T15:57:24.258Z,94814
2023-05-21T16:00:49.509Z,94817
2023-05-21T16:04:14.753Z,94815
2023-05-21T16:07:39.934Z,94813
2023-05-21T16:11:05.191Z,94814
2023-05-21T16:14:30.412Z,94811
2023-05-21T16:17:55.636Z,94811
2023-05-21T16:21:20.891Z,94806
2023-05-21T16:24:46.105Z,94808
2023-05-21T16:28:11.335Z,94810
2023-05-21T16:31:36.553Z,94807
2023-05-21T16:35:01.778Z,94809
2023-05-21T16:38:27.022Z,94805
2023-05-21T16:41:52.207Z,94806
2023-05-21T16:45:17.450Z,94797
2023-05-21T16:48:42.727Z,94799
2023-05-21T16:52:07.917Z,94804
2023-05-21T16:55:33.297Z,94799
2023-05-21T16:58:58.411Z,94797
2023-05-21T17:02:23.648Z,94797
2023-05-21T17:05:48.821Z,94802
2023-05-21T17:09:14.039Z,94803
2023-05-21T17:12:39.285Z,94797
2023-05-21T17:16:04.476Z,94799
2023-05-21T17:19:29.739Z,94799
2023-05-21T17:22:55.046Z,94800
2023-05-21T17:26:20.235Z,94795
2023-05-21T17:29:45.508Z,94800
2023-05-21T17:33:10.816Z,94801
2023-05-21T17:36:36.158Z,94803
2023-05-21T17:40:01.197Z,94799
2023-05-21T17:43:26.463Z,94803
2023-05-21T17:46:51.799Z,94801
2023-05-21T17:50:17.692Z,94807
2023-05-21T17:53:42.904Z,94799
2023-05-21T17:57:08.175Z,94807
2023-05-21T18:00:33.445Z,94803
2023-05-21T18:03:58.700Z,94810
2023-05-21T18:07:23.835Z,94816
2023-05-21T18:10:49.105Z,94819
2023-05-21T18:14:14.365Z,94821
2023-05-21T18:17:39.592Z,94816
2023-05-21T18:21:04.864Z,94818
2023-05-21T18:24:30.604Z,94822
2023-05-21T18:27:55.863Z,94827
2023-05-21T18:31:21.064Z,94830
2023-05-21T18:34:46.270Z,94833
2023-05-21T18:38:11.553Z,94835
2023-05-21T18:41:36.767Z,94840
2023-05-21T18:45:02.016Z,94841
2023-05-21T18:48:27.315Z,94844
2023-05-21T18:51:52.571Z,94851
2023-05-21T18:55:17.907Z,94848
2023-05-21T18:58:43.022Z,94847
2023-05-21T19:02:08.273Z,94853
2023-05-21T19:05:33.525Z,94859
2023-05-21T19:08:58.693Z,94860
2023-05-21T19:12:23.964Z,94861
2023-05-21T19:15:49.255Z,94862
2023-05-21T19:19:14.492Z,94854
2023-05-21T19:22:39.731Z,94861
2023-05-21T19:26:04.934Z,94862
2023-05-21T19:29:30.193Z,94866
2023-05-21T19:32:55.474Z,94869
2023-05-21T19:36:20.658Z,94868
2023-05-21T19:39:45.982Z,94878
2023-05-21T19:43:11.179Z,94878
2023-05-21T19:46:36.421Z,94883
2023-05-21T19:50:01.589Z,94882
2023-05-21T19:53:26.786Z,94882
2023-05-21T19:56:52.001Z,94883
2023-05-21T20:00:17.204Z,94885
2023-05-21T20:03:42.480Z,94886
2023-05-21T20:07:07.639Z,94887
2023-05-21T20:10:32.838Z,94888
2023-05-21T20:13:58.041Z,94890
2023-05-21T20:17:23.281Z,94891
2023-05-21T20:20:48.453Z,94888
2023-05-21T20:24:13.619Z,94891
2023-05-21T20:27:38.816Z,94891
2023-05-21T20:31:04.016Z,94892
2023-05-21T20:34:29.170Z,94890
2023-05-21T20:37:54.479Z,94889
2023-05-21T20:41:19.673Z,94883
2023-05-21T20:44:44.844Z,94883
2023-05-21T20:48:10.137Z,94875
2023-05-21T20:51:35.210Z,94880
2023-05-21T20:55:00.453Z,94881
2023-05-21T20:58:25.748Z,94885
2023-05-21T21:01:50.904Z,94884
2023-05-21T21:05:16.022Z,94884
2023-05-21T21:08:41.242Z,94889
2023-05-21T21:12:14.644Z,94888
2023-05-21T21:15:31.621Z,94890
2023-05-21T21:18:56.836Z,94891
2023-05-21T21:22:22.015Z,94889
2023-05-21T21:25:47.229Z,94889
2023-05-21T21:29:12.528Z,94893
2023-05-21T21:32:37.694Z,94890
2023-05-21T21:36:02.823Z,94897
2023-05-21T21:39:28.044Z,94898
2023-05-21T21:42:53.221Z,94897
2023-05-21T21:46:18.458Z,94892
2023-05-21T21:49:43.598Z,94889
2023-05-21T21:53:08.804Z,94891
2023-05-21T21:56:34.000Z,94886
2023-05-21T21:59:59.205Z,94888
2023-05-21T22:03:24.470Z,94885
2023-05-21T22:06:49.600Z,94888
2023-05-21T22:10:14.776Z,94885
2023-05-21T22:13:39.940Z,94887
2023-05-21T22:17:05.174Z,94889
2023-05-21T22:20:30.387Z,94887
2023-05-21T22:23:55.541Z,94888
2023-05-21T22:27:20.753Z,94888
2023-05-21T22:30:45.974Z,94886
2023-05-21T22:34:11.143Z,94890
2023-05-21T22:37:36.365Z,94891
2023-05-21T22:41:01.537Z,94891
2023-05-21T22:44:26.737Z,94888
2023-05-21T22:47:51.961Z,94881
2023-05-21T22:51:17.124Z,94884
2023-05-21T22:54:42.357Z,94881
2023-05-21T22:58:07.523Z,94885
2023-05-21T23:01:32.780Z,94887
2023-05-21T23:04:57.895Z,94887
2023-05-21T23:08:23.104Z,94877
2023-05-21T23:11:48.413Z,94871
2023-05-21T23:15:13.487Z,94877
2023-05-21T23:18:38.688Z,94876
2023-05-21T23:22:03.892Z,94881
2023-05-21T23:25:29.094Z,94882
2023-05-21T23:28:54.321Z,94878
2023-05-21T23:32:19.487Z,94881
2023-05-21T23:35:44.687Z,94870
2023-05-21T23:39:09.865Z,94880
2023-05-21T23:42:35.058Z,94878
2023-05-21T23:46:00.381Z,94874
2023-05-21T23:49:25.480Z,94876
2023-05-21T23:52:50.640Z,94877
2023-05-21T23:56:15.850Z,94878
2023-05-21T23:59:41.051Z,94875
